createdAt,value
2023-09-18T00:01:45.571Z,18.80
2023-09-18T00:04:15.075Z,18.80
2023-09-18T00:06:43.179Z,18.80
2023-09-18T00:09:14.442Z,18.80
2023-09-18T00:11:42.644Z,18.80
2023-09-18T00:14:11.272Z,18.80
2023-09-18T00:16:55.951Z,18.70
2023-09-18T00:19:27.795Z,18.70
2023-09-18T00:21:57.511Z,18.70
2023-09-18T00:24:26.338Z,18.80
2023-09-18T00:26:55.118Z,18.70
2023-09-18T00:29:23.345Z,18.70
2023-09-18T00:31:51.561Z,18.70
2023-09-18T00:34:19.726Z,18.80
2023-09-18T00:36:49.166Z,18.80
2023-09-18T00:39:17.638Z,18.70
2023-09-18T00:41:51.592Z,18.70
2023-09-18T00:44:19.721Z,18.70
2023-09-18T00:46:48.320Z,18.70
2023-09-18T00:49:17.284Z,18.70
2023-09-18T00:51:46.346Z,18.70
2023-09-18T00:54:19.254Z,18.60
2023-09-18T00:56:49.173Z,18.60
2023-09-18T00:59:17.607Z,18.60
2023-09-18T01:01:47.465Z,18.60
2023-09-18T01:04:17.070Z,18.60
2023-09-18T01:06:45.342Z,18.60
2023-09-18T01:09:16.161Z,18.60
2023-09-18T01:11:53.049Z,18.60
2023-09-18T01:14:31.119Z,18.60
2023-09-18T01:17:02.919Z,18.60
2023-09-18T01:19:39.011Z,18.60
2023-09-18T01:22:07.850Z,18.60
2023-09-18T01:24:38.690Z,18.60
2023-09-18T01:27:09.553Z,18.60
2023-09-18T01:29:37.848Z,18.60
2023-09-18T01:32:06.717Z,18.60
2023-09-18T01:34:37.176Z,18.60
2023-09-18T01:37:08.216Z,18.50
2023-09-18T01:39:38.372Z,18.50
2023-09-18T01:42:08.117Z,18.50
2023-09-18T01:44:36.606Z,18.50
2023-09-18T01:47:06.042Z,18.50
2023-09-18T01:49:35.997Z,18.40
2023-09-18T01:52:04.632Z,18.40
2023-09-18T01:54:32.922Z,18.30
2023-09-18T01:57:02.937Z,18.30
2023-09-18T01:59:31.600Z,18.40
2023-09-18T02:02:00.401Z,18.40
2023-09-18T02:04:45.888Z,18.40
2023-09-18T02:07:18.043Z,18.40
2023-09-18T02:09:46.711Z,18.40
2023-09-18T02:12:18.757Z,18.40
2023-09-18T02:14:47.390Z,18.40
2023-09-18T02:17:15.493Z,18.40
2023-09-18T02:19:44.095Z,18.40
2023-09-18T02:22:12.161Z,18.40
2023-09-18T02:24:40.475Z,18.40
2023-09-18T02:27:08.698Z,18.40
2023-09-18T02:29:38.262Z,18.40
2023-09-18T02:32:06.744Z,18.50
2023-09-18T02:34:35.232Z,18.50
2023-09-18T02:37:04.334Z,18.50
2023-09-18T02:39:32.489Z,18.50
2023-09-18T02:42:00.631Z,18.60
2023-09-18T02:44:28.836Z,18.60
2023-09-18T02:46:58.292Z,18.60
2023-09-18T02:49:26.359Z,18.60
2023-09-18T02:51:54.477Z,18.60
2023-09-18T02:54:22.581Z,18.60
2023-09-18T02:56:50.700Z,18.60
2023-09-18T02:59:18.798Z,18.60
2023-09-18T03:01:47.694Z,18.60
2023-09-18T03:04:17.339Z,18.60
2023-09-18T03:06:45.508Z,18.70
2023-09-18T03:09:13.950Z,18.70
2023-09-18T03:11:42.207Z,18.60
2023-09-18T03:14:10.379Z,18.70
2023-09-18T03:16:38.767Z,18.70
2023-09-18T03:19:07.169Z,18.60
2023-09-18T03:21:36.920Z,18.70
2023-09-18T03:24:05.625Z,18.60
2023-09-18T03:26:33.887Z,18.70
2023-09-18T03:29:02.645Z,18.70
2023-09-18T03:31:31.376Z,18.70
2023-09-18T03:34:00.045Z,18.70
2023-09-18T03:36:29.667Z,18.70
2023-09-18T03:38:59.446Z,18.70
2023-09-18T03:41:27.826Z,18.80
2023-09-18T03:43:56.829Z,18.80
2023-09-18T03:46:24.974Z,18.80
2023-09-18T03:48:53.385Z,18.80
2023-09-18T03:51:21.778Z,18.80
2023-09-18T03:53:50.038Z,18.80
2023-09-18T03:56:19.533Z,18.70
2023-09-18T03:58:50.884Z,18.70
2023-09-18T04:01:19.395Z,18.70
2023-09-18T04:03:48.052Z,18.60
2023-09-18T04:06:16.224Z,18.70
2023-09-18T04:08:44.311Z,18.70
2023-09-18T04:11:12.656Z,18.70
2023-09-18T04:13:42.225Z,18.80
2023-09-18T04:16:10.338Z,19.00
2023-09-18T04:18:38.875Z,19.00
2023-09-18T04:21:06.932Z,19.10
2023-09-18T04:23:37.667Z,19.20
2023-09-18T04:26:05.792Z,19.10
2023-09-18T04:28:33.935Z,19.20
2023-09-18T04:31:03.434Z,19.20
2023-09-18T04:33:31.694Z,19.30
2023-09-18T04:35:59.881Z,19.30
2023-09-18T04:38:28.371Z,19.20
2023-09-18T04:41:00.612Z,19.20
2023-09-18T04:43:30.988Z,19.20
2023-09-18T04:45:59.784Z,19.20
2023-09-18T04:48:29.323Z,19.30
2023-09-18T04:50:57.545Z,19.30
2023-09-18T04:53:26.809Z,19.30
2023-09-18T04:55:55.429Z,19.30
2023-09-18T04:58:24.030Z,19.40
2023-09-18T05:00:56.925Z,19.40
2023-09-18T05:03:25.463Z,19.40
2023-09-18T05:05:55.739Z,19.40
2023-09-18T05:08:24.424Z,19.40
2023-09-18T05:10:52.650Z,19.40
2023-09-18T05:13:20.777Z,19.50
2023-09-18T05:15:48.848Z,19.50
2023-09-18T05:18:17.507Z,19.50
2023-09-18T05:20:45.800Z,19.50
2023-09-18T05:23:17.168Z,19.40
2023-09-18T05:25:47.037Z,19.50
2023-09-18T05:28:15.387Z,19.50
2023-09-18T05:30:43.771Z,19.50
2023-09-18T05:33:11.960Z,19.60
2023-09-18T05:35:43.187Z,19.60
2023-09-18T05:38:14.633Z,19.60
2023-09-18T05:40:45.895Z,19.60
2023-09-18T05:43:14.103Z,19.70
2023-09-18T05:45:42.326Z,19.70
2023-09-18T05:48:10.739Z,19.70
2023-09-18T05:50:38.899Z,19.70
2023-09-18T05:53:07.181Z,19.70
2023-09-18T05:55:36.356Z,19.70
2023-09-18T05:58:07.969Z,19.80
2023-09-18T06:00:36.177Z,19.80
2023-09-18T06:03:06.603Z,19.80
2023-09-18T06:05:35.719Z,19.90
2023-09-18T06:08:04.343Z,19.90
2023-09-18T06:10:32.406Z,20.00
2023-09-18T06:13:05.238Z,19.90
2023-09-18T06:15:35.101Z,20.00
2023-09-18T06:18:04.374Z,20.00
2023-09-18T06:20:32.723Z,20.10
2023-09-18T06:23:00.799Z,20.20
2023-09-18T06:25:29.814Z,20.20
2023-09-18T06:27:57.874Z,20.30
2023-09-18T06:30:26.050Z,20.40
2023-09-18T06:32:55.829Z,20.40
2023-09-18T06:35:24.036Z,20.40
2023-09-18T06:37:52.135Z,20.40
2023-09-18T06:40:20.877Z,20.40
2023-09-18T06:42:48.950Z,20.30
2023-09-18T06:45:17.088Z,20.30
2023-09-18T06:47:45.879Z,20.30
2023-09-18T06:50:17.313Z,20.30
2023-09-18T06:52:45.742Z,20.20
2023-09-18T06:55:14.085Z,20.20
2023-09-18T06:57:42.521Z,20.20
2023-09-18T07:00:11.851Z,20.30
2023-09-18T07:02:40.142Z,20.40
2023-09-18T07:05:08.818Z,20.40
2023-09-18T07:07:38.431Z,20.40
2023-09-18T07:10:07.096Z,20.40
2023-09-18T07:12:35.419Z,20.40
2023-09-18T07:15:05.887Z,20.40
2023-09-18T07:17:34.822Z,20.50
2023-09-18T07:20:10.383Z,20.50
2023-09-18T07:22:40.125Z,20.60
2023-09-18T07:25:09.085Z,20.70
2023-09-18T07:27:39.844Z,20.80
2023-09-18T07:30:09.262Z,20.80
2023-09-18T07:32:38.841Z,20.90
2023-09-18T07:35:09.096Z,20.80
2023-09-18T07:37:37.718Z,20.90
2023-09-18T07:40:08.665Z,20.90
2023-09-18T07:42:36.744Z,21.00
2023-09-18T07:45:05.209Z,21.10
2023-09-18T07:47:33.413Z,21.10
2023-09-18T07:50:02.545Z,21.10
2023-09-18T07:52:30.790Z,21.10
2023-09-18T07:55:00.239Z,21.10
2023-09-18T07:57:31.691Z,21.10
2023-09-18T07:59:59.953Z,21.20
2023-09-18T08:02:30.023Z,21.20
2023-09-18T08:04:58.331Z,21.20
2023-09-18T08:07:26.408Z,21.20
2023-09-18T08:09:54.504Z,21.30
2023-09-18T08:12:22.650Z,21.30
2023-09-18T08:14:52.221Z,21.30
2023-09-18T08:17:20.408Z,21.30
2023-09-18T08:19:53.252Z,21.30
2023-09-18T08:22:22.349Z,21.30
2023-09-18T08:24:53.609Z,21.30
2023-09-18T08:27:22.523Z,21.40
2023-09-18T08:29:52.092Z,21.50
2023-09-18T08:32:22.348Z,21.60
2023-09-18T08:34:50.616Z,21.60
2023-09-18T08:37:18.685Z,21.60
2023-09-18T08:39:46.818Z,21.60
2023-09-18T08:42:17.625Z,21.60
2023-09-18T08:44:48.172Z,21.60
2023-09-18T08:47:20.799Z,21.60
2023-09-18T08:49:51.860Z,21.60
2023-09-18T08:52:20.781Z,21.60
2023-09-18T08:54:49.267Z,21.40
2023-09-18T08:57:17.543Z,21.40
2023-09-18T08:59:47.112Z,21.40
2023-09-18T09:02:15.595Z,21.40
2023-09-18T09:04:45.279Z,21.30
2023-09-18T09:07:13.459Z,21.30
2023-09-18T09:09:42.872Z,21.30
2023-09-18T09:12:11.249Z,21.40
2023-09-18T09:14:39.883Z,21.40
2023-09-18T09:17:08.332Z,21.50
2023-09-18T09:19:39.854Z,21.60
2023-09-18T09:22:10.465Z,21.70
2023-09-18T09:24:40.290Z,21.70
2023-09-18T09:27:09.205Z,21.70
2023-09-18T09:29:37.748Z,21.80
2023-09-18T09:32:16.826Z,22.00
2023-09-18T09:34:45.301Z,22.20
2023-09-18T09:37:14.992Z,22.30
2023-09-18T09:39:50.766Z,22.40
2023-09-18T09:42:25.617Z,22.20
2023-09-18T09:45:05.268Z,22.10
2023-09-18T09:47:36.194Z,22.20
2023-09-18T09:50:10.793Z,22.30
2023-09-18T09:52:47.851Z,22.40
2023-09-18T09:55:27.940Z,22.40
2023-09-18T09:57:58.493Z,22.40
2023-09-18T10:00:32.801Z,22.50
2023-09-18T10:03:04.607Z,22.40
2023-09-18T10:05:36.068Z,22.30
2023-09-18T10:08:10.578Z,22.30
2023-09-18T10:10:40.941Z,22.30
2023-09-18T10:13:12.642Z,22.40
2023-09-18T10:15:44.455Z,22.40
2023-09-18T10:18:24.700Z,22.40
2023-09-18T10:20:58.931Z,22.40
2023-09-18T10:23:41.937Z,22.50
2023-09-18T10:26:12.522Z,22.50
2023-09-18T10:28:42.715Z,22.50
2023-09-18T10:31:12.824Z,22.50
2023-09-18T10:33:42.156Z,22.50
2023-09-18T10:36:12.034Z,22.50
2023-09-18T10:38:42.218Z,22.60
2023-09-18T10:41:12.805Z,22.70
2023-09-18T10:43:41.010Z,22.80
2023-09-18T10:46:09.274Z,22.90
2023-09-18T10:48:38.155Z,23.00
2023-09-18T10:51:06.927Z,23.10
2023-09-18T10:53:35.398Z,23.10
2023-09-18T10:56:06.249Z,23.10
2023-09-18T10:58:36.612Z,23.10
2023-09-18T11:01:06.654Z,23.40
2023-09-18T11:03:36.178Z,23.60
2023-09-18T11:06:07.044Z,23.70
2023-09-18T11:08:37.076Z,23.70
2023-09-18T11:11:12.317Z,23.70
2023-09-18T11:13:42.429Z,23.80
2023-09-18T11:16:22.920Z,23.60
2023-09-18T11:18:54.586Z,23.50
2023-09-18T11:21:27.449Z,23.60
2023-09-18T11:24:06.636Z,23.50
2023-09-18T11:26:37.903Z,23.60
2023-09-18T11:29:10.301Z,23.60
2023-09-18T11:31:45.816Z,23.60
2023-09-18T11:34:15.469Z,23.60
2023-09-18T11:36:43.915Z,23.50
2023-09-18T11:39:12.963Z,23.60
2023-09-18T11:41:42.796Z,23.80
2023-09-18T11:44:42.397Z,23.80
2023-09-18T11:47:19.309Z,24.00
2023-09-18T11:49:55.741Z,24.10
2023-09-18T11:52:25.654Z,23.90
2023-09-18T11:54:55.690Z,23.80
2023-09-18T11:57:26.002Z,23.90
2023-09-18T11:59:54.374Z,23.90
2023-09-18T12:02:36.239Z,23.90
2023-09-18T12:05:11.070Z,23.80
2023-09-18T12:07:39.369Z,23.80
2023-09-18T12:10:11.019Z,23.70
2023-09-18T12:12:40.916Z,23.60
2023-09-18T12:15:10.203Z,23.60
2023-09-18T12:17:38.432Z,23.80
2023-09-18T12:20:08.022Z,24.10
2023-09-18T12:22:37.963Z,24.20
2023-09-18T12:25:15.721Z,24.10
2023-09-18T12:27:46.739Z,23.90
2023-09-18T12:30:21.514Z,23.60
2023-09-18T12:32:49.775Z,23.50
2023-09-18T12:35:19.697Z,23.50
2023-09-18T12:37:48.036Z,23.50
2023-09-18T12:40:27.085Z,23.50
2023-09-18T12:42:57.899Z,23.50
2023-09-18T12:45:26.908Z,23.60
2023-09-18T12:47:57.902Z,23.60
2023-09-18T12:50:26.722Z,23.60
2023-09-18T12:52:54.838Z,23.80
2023-09-18T12:55:24.982Z,23.90
2023-09-18T12:57:53.364Z,23.70
2023-09-18T13:00:27.546Z,23.60
2023-09-18T13:02:57.451Z,23.50
2023-09-18T13:05:27.905Z,23.60
2023-09-18T13:07:57.491Z,23.50
2023-09-18T13:10:28.783Z,23.50
2023-09-18T13:12:59.076Z,23.60
2023-09-18T13:15:30.065Z,23.80
2023-09-18T13:17:59.191Z,23.90
2023-09-18T13:20:30.126Z,23.70
2023-09-18T13:23:01.299Z,23.70
2023-09-18T13:25:33.208Z,23.70
2023-09-18T13:28:01.591Z,23.60
2023-09-18T13:30:32.389Z,23.60
2023-09-18T13:33:05.648Z,23.40
2023-09-18T13:35:34.666Z,23.50
2023-09-18T13:38:03.189Z,23.60
2023-09-18T13:40:31.310Z,23.60
2023-09-18T13:42:59.388Z,23.70
2023-09-18T13:45:27.646Z,23.70
2023-09-18T13:47:57.101Z,23.80
2023-09-18T13:50:25.225Z,23.60
2023-09-18T13:52:54.045Z,23.70
2023-09-18T13:55:22.604Z,23.70
2023-09-18T13:57:50.976Z,23.70
2023-09-18T14:00:19.535Z,23.60
2023-09-18T14:02:48.002Z,23.60
2023-09-18T14:05:18.521Z,23.80
2023-09-18T14:07:48.378Z,23.90
2023-09-18T14:10:18.552Z,23.70
2023-09-18T14:12:47.474Z,23.70
2023-09-18T14:15:15.836Z,23.80
2023-09-18T14:17:43.991Z,24.00
2023-09-18T14:20:12.835Z,24.10
2023-09-18T14:22:42.679Z,23.90
2023-09-18T14:25:12.395Z,23.90
2023-09-18T14:27:41.591Z,23.90
2023-09-18T14:30:10.909Z,24.00
2023-09-18T14:32:39.745Z,24.00
2023-09-18T14:35:09.959Z,23.80
2023-09-18T14:37:38.820Z,23.60
2023-09-18T14:40:13.013Z,23.50
2023-09-18T14:42:41.841Z,23.50
2023-09-18T14:45:13.805Z,23.60
2023-09-18T14:47:42.258Z,23.70
2023-09-18T14:50:10.788Z,23.80
2023-09-18T14:52:38.936Z,23.90
2023-09-18T14:55:10.396Z,23.80
2023-09-18T14:57:40.229Z,23.70
2023-09-18T15:00:09.594Z,23.60
2023-09-18T15:02:37.935Z,23.70
2023-09-18T15:05:10.027Z,23.60
2023-09-18T15:07:38.114Z,23.60
2023-09-18T15:10:09.604Z,23.60
2023-09-18T15:12:37.720Z,23.50
2023-09-18T15:15:06.917Z,23.40
2023-09-18T15:17:35.071Z,23.30
2023-09-18T15:20:04.550Z,23.30
2023-09-18T15:22:32.711Z,23.40
2023-09-18T15:25:02.470Z,23.40
2023-09-18T15:27:32.157Z,23.40
2023-09-18T15:30:00.458Z,23.40
2023-09-18T15:32:31.889Z,23.40
2023-09-18T15:35:00.251Z,23.30
2023-09-18T15:37:28.584Z,23.40
2023-09-18T15:39:56.840Z,23.40
2023-09-18T15:42:24.915Z,23.40
2023-09-18T15:44:54.484Z,23.40
2023-09-18T15:47:22.667Z,23.40
2023-09-18T15:49:50.772Z,23.40
2023-09-18T15:52:18.858Z,23.30
2023-09-18T15:54:47.003Z,23.30
2023-09-18T15:57:15.205Z,23.30
2023-09-18T15:59:43.368Z,23.20
2023-09-18T16:02:13.161Z,23.10
2023-09-18T16:04:41.543Z,23.00
2023-09-18T16:07:13.342Z,23.00
2023-09-18T16:09:42.728Z,23.00
2023-09-18T16:12:10.881Z,23.00
2023-09-18T16:14:39.139Z,22.90
2023-09-18T16:17:07.271Z,22.90
2023-09-18T16:19:36.738Z,22.90
2023-09-18T16:22:05.554Z,23.00
2023-09-18T16:24:33.762Z,22.90
2023-09-18T16:27:02.995Z,22.90
2023-09-18T16:29:31.381Z,22.90
2023-09-18T16:31:59.497Z,22.80
2023-09-18T16:34:27.961Z,22.80
2023-09-18T16:36:57.442Z,22.70
2023-09-18T16:39:26.968Z,22.70
2023-09-18T16:41:55.414Z,22.70
2023-09-18T16:44:23.611Z,22.70
2023-09-18T16:46:51.706Z,22.70
2023-09-18T16:49:23.336Z,22.70
2023-09-18T16:51:51.592Z,22.60
2023-09-18T16:54:23.662Z,22.50
2023-09-18T16:56:53.007Z,22.50
2023-09-18T16:59:23.775Z,22.50
2023-09-18T17:01:52.101Z,22.50
2023-09-18T17:04:20.296Z,22.50
2023-09-18T17:06:48.556Z,22.40
2023-09-18T17:09:16.680Z,22.40
2023-09-18T17:11:46.527Z,22.40
2023-09-18T17:14:15.037Z,22.30
2023-09-18T17:16:43.286Z,22.20
2023-09-18T17:19:13.907Z,22.00
2023-09-18T17:21:42.018Z,21.90
2023-09-18T17:24:10.310Z,21.90
2023-09-18T17:26:38.651Z,21.90
2023-09-18T17:29:08.182Z,21.90
2023-09-18T17:31:36.280Z,21.90
2023-09-18T17:34:05.463Z,21.90
2023-09-18T17:36:40.856Z,21.90
2023-09-18T17:39:11.064Z,21.80
2023-09-18T17:41:39.583Z,21.90
2023-09-18T17:44:09.273Z,21.90
2023-09-18T17:46:37.338Z,21.90
2023-09-18T17:49:05.822Z,21.90
2023-09-18T17:51:35.245Z,21.80
2023-09-18T17:54:03.565Z,21.70
2023-09-18T17:56:31.826Z,21.60
2023-09-18T17:59:00.047Z,21.60
2023-09-18T18:01:29.658Z,21.50
2023-09-18T18:03:59.090Z,21.40
2023-09-18T18:06:27.659Z,21.40
2023-09-18T18:08:55.887Z,21.40
2023-09-18T18:11:24.007Z,21.40
2023-09-18T18:13:52.269Z,21.30
2023-09-18T18:16:21.942Z,21.40
2023-09-18T18:18:51.585Z,21.40
2023-09-18T18:21:21.290Z,21.40
2023-09-18T18:23:49.498Z,21.50
2023-09-18T18:26:22.100Z,21.60
2023-09-18T18:28:50.231Z,20.90
2023-09-18T18:31:18.425Z,20.00
2023-09-18T18:33:46.666Z,19.20
2023-09-18T18:36:16.133Z,18.80
2023-09-18T18:38:44.501Z,18.60
2023-09-18T18:41:13.026Z,18.50
2023-09-18T18:43:41.595Z,18.40
2023-09-18T18:46:10.898Z,18.30
2023-09-18T18:48:39.189Z,18.20
2023-09-18T18:51:18.437Z,18.20
2023-09-18T18:53:50.430Z,18.10
2023-09-18T18:56:20.523Z,18.00
2023-09-18T18:58:50.731Z,18.00
2023-09-18T19:01:21.446Z,18.00
2023-09-18T19:03:49.932Z,17.90
2023-09-18T19:06:18.745Z,17.80
2023-09-18T19:08:48.400Z,17.70
2023-09-18T19:11:17.679Z,17.70
2023-09-18T19:13:48.195Z,17.70
2023-09-18T19:16:16.359Z,17.60
2023-09-18T19:18:44.777Z,17.50
2023-09-18T19:21:13.247Z,17.50
2023-09-18T19:23:43.660Z,17.50
2023-09-18T19:26:13.590Z,17.50
2023-09-18T19:28:41.832Z,17.60
2023-09-18T19:31:10.032Z,17.60
2023-09-18T19:33:40.763Z,17.50
2023-09-18T19:36:09.480Z,17.50
2023-09-18T19:38:38.302Z,17.50
2023-09-18T19:41:07.531Z,17.50
2023-09-18T19:43:37.255Z,17.50
2023-09-18T19:46:05.560Z,17.50
2023-09-18T19:48:33.709Z,17.50
2023-09-18T19:51:02.881Z,17.50
2023-09-18T19:53:31.122Z,17.50
2023-09-18T19:55:59.236Z,17.50
2023-09-18T19:58:27.564Z,17.40
2023-09-18T20:00:57.026Z,17.40
2023-09-18T20:03:25.745Z,17.40
2023-09-18T20:05:53.972Z,17.40
2023-09-18T20:08:22.037Z,17.40
2023-09-18T20:10:50.440Z,17.40
2023-09-18T20:13:18.513Z,17.30
2023-09-18T20:15:46.594Z,17.30
2023-09-18T20:18:16.453Z,17.30
2023-09-18T20:20:44.680Z,17.20
2023-09-18T20:23:13.162Z,17.20
2023-09-18T20:25:41.227Z,17.10
2023-09-18T20:28:09.319Z,17.10
2023-09-18T20:30:37.838Z,17.10
2023-09-18T20:33:06.568Z,17.00
2023-09-18T20:35:36.231Z,17.00
2023-09-18T20:38:14.397Z,17.00
2023-09-18T20:40:44.739Z,17.00
2023-09-18T20:43:12.871Z,17.00
2023-09-18T20:45:41.578Z,17.00
2023-09-18T20:48:10.266Z,17.00
2023-09-18T20:50:39.814Z,17.10
2023-09-18T20:53:08.540Z,17.00
2023-09-18T20:55:35.682Z,17.10
2023-09-18T20:58:04.206Z,17.00
2023-09-18T21:00:33.410Z,17.00
2023-09-18T21:03:01.672Z,17.00
2023-09-18T21:05:29.966Z,16.90
2023-09-18T21:07:59.381Z,17.00
2023-09-18T21:10:33.377Z,17.00
2023-09-18T21:13:02.916Z,16.90
2023-09-18T21:15:30.983Z,16.90
2023-09-18T21:17:59.087Z,16.90
2023-09-18T21:20:27.222Z,16.90
2023-09-18T21:22:55.473Z,16.90
2023-09-18T21:25:25.051Z,16.90
2023-09-18T21:27:53.080Z,16.90
2023-09-18T21:30:21.174Z,16.90
2023-09-18T21:32:49.293Z,16.90
2023-09-18T21:35:17.606Z,16.80
2023-09-18T21:37:47.285Z,16.80
2023-09-18T21:40:16.057Z,16.80
2023-09-18T21:42:48.144Z,16.90
2023-09-18T21:45:17.545Z,16.80
2023-09-18T21:47:45.775Z,16.80
2023-09-18T21:50:14.145Z,16.80
2023-09-18T21:52:42.237Z,16.80
2023-09-18T21:55:10.627Z,16.80
2023-09-18T21:57:39.516Z,16.90
2023-09-18T22:00:16.416Z,16.80
2023-09-18T22:02:44.667Z,16.80
2023-09-18T22:05:14.179Z,16.80
2023-09-18T22:07:42.328Z,16.80
2023-09-18T22:10:13.036Z,16.80
2023-09-18T22:12:41.305Z,16.70
2023-09-18T22:17:42.766Z,16.80
2023-09-18T22:20:12.929Z,16.70
2023-09-18T22:22:41.470Z,16.70
2023-09-18T22:25:10.399Z,16.70
2023-09-18T22:27:39.014Z,16.70
2023-09-18T22:30:09.014Z,16.70
2023-09-18T22:32:38.784Z,16.70
2023-09-18T22:35:10.646Z,16.70
2023-09-18T22:37:40.052Z,16.70
2023-09-18T22:40:08.476Z,16.60
2023-09-18T22:43:15.853Z,16.70
2023-09-18T22:46:22.205Z,16.70
2023-09-18T22:49:27.709Z,16.60
2023-09-18T22:52:33.086Z,16.60
2023-09-18T22:55:02.588Z,16.60
2023-09-18T22:57:31.970Z,16.60
2023-09-18T23:00:01.403Z,16.60
2023-09-18T23:02:30.010Z,16.60
2023-09-18T23:04:59.636Z,16.60
2023-09-18T23:07:28.014Z,16.50
2023-09-18T23:09:58.564Z,16.50
2023-09-18T23:12:35.421Z,16.50
2023-09-18T23:15:06.201Z,16.50
2023-09-18T23:17:35.799Z,16.50
2023-09-18T23:20:09.058Z,16.50
2023-09-18T23:22:38.408Z,16.60
2023-09-18T23:25:09.353Z,16.50
2023-09-18T23:27:41.585Z,16.50
2023-09-18T23:30:13.411Z,16.50
2023-09-18T23:32:43.991Z,16.50
2023-09-18T23:35:18.064Z,16.50
2023-09-18T23:37:47.056Z,16.50
2023-09-18T23:40:16.182Z,16.50
2023-09-18T23:42:48.331Z,16.50
2023-09-18T23:45:17.544Z,16.50
2023-09-18T23:47:47.909Z,16.50
2023-09-18T23:50:17.172Z,16.50
2023-09-18T23:52:46.525Z,16.50
2023-09-18T23:55:17.379Z,16.50
2023-09-18T23:57:56.400Z,16.40
